createdAt,value
2018-09-18T00:02:14.403Z,48.40
2018-09-18T00:04:42.838Z,48.70
2018-09-18T00:07:10.987Z,49.00
2018-09-18T00:09:39.153Z,49.20
2018-09-18T00:12:07.313Z,50.40
2018-09-18T00:14:35.415Z,50.20
2018-09-18T00:17:03.544Z,50.00
2018-09-18T00:19:31.731Z,50.20
2018-09-18T00:21:59.867Z,50.40
2018-09-18T00:24:27.985Z,51.00
2018-09-18T00:26:56.095Z,50.80
2018-09-18T00:29:24.209Z,50.60
2018-09-18T00:31:52.398Z,50.20
2018-09-18T00:34:20.596Z,50.20
2018-09-18T00:36:48.798Z,49.90
2018-09-18T00:39:16.928Z,50.10
2018-09-18T00:41:45.119Z,50.50
2018-09-18T00:44:13.266Z,50.50
2018-09-18T00:46:41.444Z,50.10
2018-09-18T00:49:09.612Z,49.80
2018-09-18T00:51:37.740Z,49.80
2018-09-18T00:54:05.850Z,49.80
2018-09-18T00:56:34.046Z,50.10
2018-09-18T00:59:02.198Z,50.40
2018-09-18T01:01:30.420Z,50.50
2018-09-18T01:03:58.556Z,50.50
2018-09-18T01:06:26.804Z,50.50
2018-09-18T01:08:54.961Z,50.70
2018-09-18T01:11:23.136Z,50.40
2018-09-18T01:13:51.264Z,50.70
2018-09-18T01:16:19.425Z,50.50
2018-09-18T01:18:47.590Z,50.60
2018-09-18T01:21:15.744Z,51.10
2018-09-18T01:23:43.859Z,51.30
2018-09-18T01:26:12.006Z,51.30
2018-09-18T01:28:40.191Z,51.40
2018-09-18T01:31:08.361Z,51.80
2018-09-18T01:33:36.499Z,51.50
2018-09-18T01:36:04.942Z,51.70
2018-09-18T01:38:33.106Z,52.30
2018-09-18T01:41:01.246Z,52.10
2018-09-18T01:43:29.380Z,52.10
2018-09-18T01:45:57.588Z,52.10
2018-09-18T01:48:25.712Z,52.20
2018-09-18T01:50:53.948Z,52.20
2018-09-18T01:53:22.054Z,52.50
2018-09-18T01:55:50.184Z,52.30
2018-09-18T01:58:18.347Z,52.20
2018-09-18T02:00:46.512Z,52.40
2018-09-18T02:03:14.644Z,52.40
2018-09-18T02:05:42.813Z,52.60
2018-09-18T02:08:10.972Z,52.30
2018-09-18T02:10:39.289Z,52.50
2018-09-18T02:13:07.453Z,53.00
2018-09-18T02:15:35.608Z,52.40
2018-09-18T02:18:03.733Z,52.80
2018-09-18T02:20:31.860Z,53.30
2018-09-18T02:23:00.026Z,53.20
2018-09-18T02:25:28.120Z,53.40
2018-09-18T02:27:56.233Z,53.40
2018-09-18T02:30:24.373Z,53.10
2018-09-18T02:32:52.531Z,53.30
2018-09-18T02:35:20.672Z,53.60
2018-09-18T02:37:48.828Z,53.10
2018-09-18T02:40:16.956Z,52.30
2018-09-18T02:42:45.139Z,52.90
2018-09-18T02:45:13.261Z,53.00
2018-09-18T02:47:41.460Z,52.70
2018-09-18T02:50:09.572Z,53.20
2018-09-18T02:52:37.703Z,53.60
2018-09-18T02:55:05.860Z,54.00
2018-09-18T02:57:33.984Z,53.20
2018-09-18T03:00:02.116Z,53.50
2018-09-18T03:02:30.302Z,53.30
2018-09-18T03:04:58.417Z,52.90
2018-09-18T03:07:26.543Z,53.20
2018-09-18T03:09:54.623Z,53.20
2018-09-18T03:12:22.767Z,53.10
2018-09-18T03:14:50.961Z,53.60
2018-09-18T03:17:19.108Z,53.90
2018-09-18T03:19:47.276Z,53.60
2018-09-18T03:22:15.413Z,53.80
2018-09-18T03:24:43.579Z,53.70
2018-09-18T03:27:11.761Z,53.80
2018-09-18T03:29:39.900Z,54.30
2018-09-18T03:32:08.113Z,54.10
2018-09-18T03:34:36.265Z,54.00
2018-09-18T03:37:04.395Z,54.40
2018-09-18T03:39:32.534Z,54.30
2018-09-18T03:42:00.737Z,54.60
2018-09-18T03:44:28.876Z,55.20
2018-09-18T03:46:57.010Z,55.20
2018-09-18T03:49:25.119Z,55.40
2018-09-18T03:51:53.313Z,55.30
2018-09-18T03:54:21.477Z,55.60
2018-09-18T03:56:49.644Z,56.10
2018-09-18T03:59:17.833Z,56.20
2018-09-18T04:01:46.007Z,56.30
2018-09-18T04:04:14.141Z,56.80
2018-09-18T04:06:42.308Z,56.70
2018-09-18T04:09:11.746Z,56.90
2018-09-18T04:11:40.400Z,57.00
2018-09-18T04:14:08.756Z,57.20
2018-09-18T04:16:36.986Z,57.60
2018-09-18T04:19:05.144Z,57.20
2018-09-18T04:21:38.673Z,57.70
2018-09-18T04:24:06.980Z,57.70
2018-09-18T04:26:35.440Z,58.10
2018-09-18T04:29:03.760Z,58.10
2018-09-18T04:31:31.923Z,58.20
2018-09-18T04:34:00.073Z,58.40
2018-09-18T04:36:28.279Z,58.20
2018-09-18T04:38:56.452Z,58.50
2018-09-18T04:41:25.600Z,58.60
2018-09-18T04:43:53.789Z,58.70
2018-09-18T04:46:22.096Z,58.80
2018-09-18T04:48:50.270Z,59.20
2018-09-18T04:51:18.441Z,59.30
2018-09-18T04:53:46.661Z,59.40
2018-09-18T04:56:15.023Z,59.40
2018-09-18T04:58:43.274Z,59.60
2018-09-18T05:01:11.487Z,59.60
2018-09-18T05:03:39.625Z,59.60
2018-09-18T05:06:07.917Z,59.70
2018-09-18T05:08:36.112Z,59.70
2018-09-18T05:11:04.417Z,60.20
2018-09-18T05:13:32.686Z,59.70
2018-09-18T05:16:00.895Z,59.60
2018-09-18T05:18:29.161Z,59.60
2018-09-18T05:20:57.301Z,59.40
2018-09-18T05:23:25.674Z,58.90
2018-09-18T05:25:53.806Z,59.20
2018-09-18T05:28:22.001Z,58.90
2018-09-18T05:30:50.168Z,58.90
2018-09-18T05:33:18.302Z,58.00
2018-09-18T05:35:46.502Z,57.70
2018-09-18T05:38:14.722Z,57.10
2018-09-18T05:40:42.871Z,56.40
2018-09-18T05:43:11.002Z,56.40
2018-09-18T05:45:39.215Z,55.70
2018-09-18T05:48:11.648Z,55.90
2018-09-18T05:50:40.096Z,55.60
2018-09-18T05:53:08.596Z,55.10
2018-09-18T05:55:36.785Z,54.50
2018-09-18T05:58:05.003Z,52.80
2018-09-18T06:00:33.167Z,53.70
2018-09-18T06:03:01.334Z,53.70
2018-09-18T06:05:29.486Z,53.50
2018-09-18T06:07:57.608Z,52.50
2018-09-18T06:10:26.125Z,52.30
2018-09-18T06:12:54.270Z,50.50
2018-09-18T06:15:22.437Z,50.30
2018-09-18T06:17:50.576Z,48.50
2018-09-18T06:20:18.808Z,47.20
2018-09-18T06:22:47.085Z,48.10
2018-09-18T06:25:16.272Z,46.10
2018-09-18T06:27:44.716Z,43.30
2018-09-18T06:30:13.200Z,42.50
2018-09-18T06:32:41.438Z,41.00
2018-09-18T06:35:09.720Z,38.80
2018-09-18T06:37:37.926Z,34.50
2018-09-18T06:40:06.137Z,29.90
2018-09-18T06:42:36.206Z,26.70
2018-09-18T06:45:04.495Z,21.90
2018-09-18T06:47:32.698Z,18.60
2018-09-18T06:50:00.879Z,13.80
2018-09-18T06:52:28.997Z,11.60
2018-09-18T06:54:57.805Z,9.70
2018-09-18T06:57:25.950Z,7.50
2018-09-18T06:59:54.102Z,7.20
2018-09-18T07:02:22.237Z,6.60
2018-09-18T07:04:50.384Z,6.50
2018-09-18T07:07:18.555Z,5.80
2018-09-18T07:09:47.020Z,5.40
2018-09-18T07:12:15.113Z,4.20
2018-09-18T07:14:43.276Z,3.60
2018-09-18T07:17:11.422Z,3.60
2018-09-18T07:19:39.719Z,4.00
2018-09-18T07:22:07.892Z,3.00
2018-09-18T07:24:36.011Z,3.20
2018-09-18T07:27:04.137Z,2.90
2018-09-18T07:29:32.278Z,1.70
2018-09-18T07:32:00.388Z,1.70
2018-09-18T07:34:28.499Z,1.00
2018-09-18T07:36:56.637Z,1.00
2018-09-18T07:39:24.781Z,1.00
2018-09-18T07:41:52.949Z,1.00
2018-09-18T07:44:21.099Z,1.00
2018-09-18T07:46:49.184Z,1.00
2018-09-18T07:49:17.338Z,1.00
2018-09-18T07:51:45.526Z,1.00
2018-09-18T07:54:13.631Z,1.20
2018-09-18T07:56:41.750Z,2.20
2018-09-18T07:59:09.869Z,4.20
2018-09-18T08:01:38.105Z,5.40
2018-09-18T08:04:06.210Z,7.30
2018-09-18T08:06:34.357Z,7.30
2018-09-18T08:09:02.547Z,7.50
2018-09-18T08:11:30.655Z,7.70
2018-09-18T08:13:58.878Z,7.70
2018-09-18T08:16:27.032Z,7.70
2018-09-18T08:18:55.315Z,6.80
2018-09-18T08:21:24.006Z,5.20
2018-09-18T08:23:52.163Z,3.60
2018-09-18T08:26:20.325Z,2.70
2018-09-18T08:28:48.431Z,2.00
2018-09-18T08:31:16.598Z,1.10
2018-09-18T08:33:44.689Z,1.00
2018-09-18T08:36:12.835Z,1.00
2018-09-18T08:38:40.926Z,1.00
2018-09-18T08:41:09.033Z,1.00
2018-09-18T08:43:37.197Z,1.00
2018-09-18T08:48:44.034Z,1.00
2018-09-18T08:51:12.199Z,1.00
2018-09-18T08:53:40.361Z,1.00
2018-09-18T08:56:08.473Z,1.00
2018-09-18T08:58:36.594Z,1.00
2018-09-18T09:01:04.738Z,1.00
2018-09-18T09:03:32.942Z,1.00
2018-09-18T09:06:01.399Z,1.00
2018-09-18T09:08:29.636Z,1.00
2018-09-18T09:10:57.858Z,1.00
2018-09-18T09:13:25.916Z,1.00
2018-09-18T09:15:54.066Z,1.00
2018-09-18T09:18:22.259Z,1.00
2018-09-18T09:20:50.400Z,1.00
2018-09-18T09:23:18.435Z,1.00
2018-09-18T09:25:46.590Z,1.00
2018-09-18T09:28:14.776Z,1.00
2018-09-18T09:30:42.888Z,1.00
2018-09-18T09:33:11.152Z,1.00
2018-09-18T09:35:39.264Z,1.00
2018-09-18T09:38:07.366Z,1.00
2018-09-18T09:40:35.524Z,1.00
2018-09-18T09:43:03.652Z,1.00
2018-09-18T09:45:31.774Z,1.00
2018-09-18T09:47:59.902Z,1.00
2018-09-18T09:50:28.054Z,1.00
2018-09-18T09:52:56.160Z,1.00
2018-09-18T09:55:24.258Z,1.00
2018-09-18T09:57:52.437Z,1.00
2018-09-18T10:00:26.117Z,1.00
2018-09-18T10:02:54.363Z,1.00
2018-09-18T10:05:22.422Z,1.00
2018-09-18T10:07:50.520Z,1.00
2018-09-18T10:10:18.714Z,1.00
2018-09-18T10:12:46.832Z,1.00
2018-09-18T10:15:15.070Z,1.00
2018-09-18T10:17:43.235Z,1.00
2018-09-18T10:20:11.260Z,1.00
2018-09-18T10:22:39.382Z,1.00
2018-09-18T10:25:07.533Z,1.00
2018-09-18T10:27:35.712Z,1.00
2018-09-18T10:30:03.975Z,1.00
2018-09-18T10:32:32.095Z,1.00
2018-09-18T10:35:00.189Z,1.00
2018-09-18T10:37:28.526Z,1.00
2018-09-18T10:39:56.668Z,1.00
2018-09-18T10:42:24.774Z,1.00
2018-09-18T10:44:53.222Z,1.00
2018-09-18T10:47:21.413Z,1.00
2018-09-18T10:49:49.500Z,1.00
2018-09-18T10:52:18.309Z,1.00
2018-09-18T10:54:46.424Z,1.00
2018-09-18T10:57:14.705Z,1.00
2018-09-18T10:59:42.848Z,1.00
2018-09-18T11:02:11.090Z,1.00
2018-09-18T11:04:39.096Z,1.00
2018-09-18T11:07:07.279Z,1.00
2018-09-18T11:09:35.434Z,1.00
2018-09-18T11:12:03.610Z,1.00
2018-09-18T11:14:31.798Z,1.00
2018-09-18T11:16:59.991Z,1.00
2018-09-18T11:19:28.115Z,1.00
2018-09-18T11:21:56.374Z,1.00
2018-09-18T11:24:24.501Z,1.00
2018-09-18T11:26:52.636Z,1.00
2018-09-18T11:29:20.862Z,1.00
2018-09-18T11:31:48.955Z,1.00
2018-09-18T11:34:17.078Z,1.00
2018-09-18T11:36:45.221Z,1.00
2018-09-18T11:39:13.347Z,1.00
2018-09-18T11:41:41.776Z,1.00
2018-09-18T11:44:09.922Z,1.00
2018-09-18T11:46:38.038Z,1.00
2018-09-18T11:49:06.189Z,1.00
2018-09-18T11:51:34.358Z,1.00
2018-09-18T11:54:02.499Z,1.00
2018-09-18T11:56:31.046Z,1.00
2018-09-18T11:58:59.211Z,1.00
2018-09-18T12:01:27.449Z,1.00
2018-09-18T12:03:55.564Z,1.00
2018-09-18T12:06:23.702Z,1.00
2018-09-18T12:08:51.816Z,1.00
2018-09-18T12:11:19.994Z,1.00
2018-09-18T12:13:48.330Z,1.00
2018-09-18T12:16:16.493Z,1.00
2018-09-18T12:18:44.732Z,1.00
2018-09-18T12:21:12.885Z,1.00
2018-09-18T12:23:41.029Z,1.00
2018-09-18T12:26:09.183Z,1.00
2018-09-18T12:28:37.328Z,1.00
2018-09-18T12:31:05.471Z,1.00
2018-09-18T12:33:33.562Z,1.00
2018-09-18T12:36:01.684Z,1.00
2018-09-18T12:38:29.817Z,1.00
2018-09-18T12:40:57.963Z,1.00
2018-09-18T12:43:26.068Z,1.00
2018-09-18T12:45:54.368Z,1.00
2018-09-18T12:48:22.527Z,1.00
2018-09-18T12:50:50.737Z,1.00
2018-09-18T12:53:18.803Z,1.00
2018-09-18T12:55:46.951Z,1.00
2018-09-18T12:58:15.100Z,1.00
2018-09-18T13:00:43.254Z,1.00
2018-09-18T13:03:11.526Z,1.00
2018-09-18T13:05:39.754Z,1.00
2018-09-18T13:08:07.949Z,1.00
2018-09-18T13:10:36.060Z,1.00
2018-09-18T13:13:04.132Z,1.00
2018-09-18T13:15:32.748Z,1.00
2018-09-18T13:18:00.890Z,1.00
2018-09-18T13:20:29.096Z,1.00
2018-09-18T13:22:57.209Z,1.00
2018-09-18T13:25:25.351Z,1.00
2018-09-18T13:27:53.451Z,1.00
2018-09-18T13:30:21.596Z,1.00
2018-09-18T13:32:49.673Z,1.00
2018-09-18T13:35:17.764Z,1.00
2018-09-18T13:37:45.958Z,1.00
2018-09-18T13:40:14.065Z,1.00
2018-09-18T13:42:42.249Z,1.00
2018-09-18T13:45:10.389Z,1.00
2018-09-18T13:47:38.694Z,1.00
2018-09-18T13:50:06.850Z,1.00
2018-09-18T13:52:34.942Z,1.00
2018-09-18T13:55:03.020Z,1.00
2018-09-18T13:57:31.242Z,1.00
2018-09-18T13:59:59.313Z,1.00
2018-09-18T14:02:27.452Z,1.00
2018-09-18T14:04:55.638Z,1.00
2018-09-18T14:07:23.756Z,1.00
2018-09-18T14:09:51.885Z,1.00
2018-09-18T14:12:19.993Z,1.00
2018-09-18T14:14:48.262Z,1.00
2018-09-18T14:17:16.327Z,1.00
2018-09-18T14:19:44.491Z,1.00
2018-09-18T14:22:12.648Z,1.00
2018-09-18T14:24:40.774Z,1.00
2018-09-18T14:27:09.726Z,1.00
2018-09-18T14:29:37.892Z,1.00
2018-09-18T14:32:06.947Z,1.00
2018-09-18T14:34:35.080Z,1.00
2018-09-18T14:37:03.249Z,1.00
2018-09-18T14:39:31.418Z,1.00
2018-09-18T14:41:59.536Z,1.00
2018-09-18T14:44:27.603Z,1.00
2018-09-18T14:46:55.800Z,1.00
2018-09-18T14:49:23.879Z,1.00
2018-09-18T14:51:52.194Z,1.00
2018-09-18T14:54:20.297Z,1.00
2018-09-18T14:56:48.451Z,1.00
2018-09-18T14:59:16.594Z,1.00
2018-09-18T15:01:44.698Z,1.00
2018-09-18T15:04:12.956Z,1.00
2018-09-18T15:06:41.015Z,1.00
2018-09-18T15:09:09.996Z,1.00
2018-09-18T15:11:38.133Z,1.00
2018-09-18T15:14:06.475Z,1.00
2018-09-18T15:16:34.649Z,1.00
2018-09-18T15:19:02.774Z,1.00
2018-09-18T15:21:30.868Z,1.00
2018-09-18T15:23:58.990Z,1.00
2018-09-18T15:26:27.126Z,1.00
2018-09-18T15:28:55.261Z,1.00
2018-09-18T15:31:23.699Z,1.00
2018-09-18T15:33:51.844Z,1.00
2018-09-18T15:36:21.012Z,1.00
2018-09-18T15:38:49.161Z,1.00
2018-09-18T15:41:17.245Z,1.00
2018-09-18T15:43:45.354Z,1.00
2018-09-18T15:46:13.568Z,1.00
2018-09-18T15:48:41.661Z,1.00
2018-09-18T15:51:09.776Z,1.00
2018-09-18T15:53:37.930Z,1.00
2018-09-18T15:56:05.996Z,1.00
2018-09-18T15:58:34.102Z,1.00
2018-09-18T16:01:02.226Z,1.00
2018-09-18T16:03:30.292Z,1.00
2018-09-18T16:05:58.526Z,1.00
2018-09-18T16:08:26.655Z,1.00
2018-09-18T16:10:54.748Z,1.00
2018-09-18T16:13:22.842Z,1.00
2018-09-18T16:15:50.920Z,1.00
2018-09-18T16:18:19.008Z,1.00
2018-09-18T16:20:47.089Z,1.00
2018-09-18T16:23:15.164Z,1.00
2018-09-18T16:25:43.267Z,1.00
2018-09-18T16:28:11.572Z,1.00
2018-09-18T16:30:39.718Z,1.00
2018-09-18T16:33:08.125Z,1.00
2018-09-18T16:35:36.294Z,1.00
2018-09-18T16:38:04.384Z,1.00
2018-09-18T16:40:32.594Z,1.00
2018-09-18T16:43:00.667Z,1.00
2018-09-18T16:45:28.753Z,1.00
2018-09-18T16:47:56.860Z,1.00
2018-09-18T16:50:24.991Z,1.00
2018-09-18T16:52:53.133Z,1.00
2018-09-18T16:55:21.315Z,1.00
2018-09-18T16:57:49.528Z,1.00
2018-09-18T17:00:17.738Z,1.00
2018-09-18T17:02:45.881Z,1.00
2018-09-18T17:05:14.012Z,1.00
2018-09-18T17:07:42.206Z,1.00
2018-09-18T17:10:10.520Z,1.70
2018-09-18T17:12:39.143Z,2.60
2018-09-18T17:15:07.695Z,4.40
2018-09-18T17:17:36.119Z,4.80
2018-09-18T17:20:04.570Z,5.20
2018-09-18T17:22:33.010Z,5.80
2018-09-18T17:25:02.207Z,3.80
2018-09-18T17:27:30.534Z,4.90
2018-09-18T17:29:58.753Z,7.30
2018-09-18T17:32:27.019Z,8.70
2018-09-18T17:34:55.226Z,9.10
2018-09-18T17:37:23.475Z,7.30
2018-09-18T17:39:51.938Z,9.50
2018-09-18T17:42:20.340Z,10.70
2018-09-18T17:44:48.571Z,9.70
2018-09-18T17:47:16.918Z,10.00
2018-09-18T17:49:45.410Z,11.20
2018-09-18T17:52:13.747Z,11.70
2018-09-18T17:54:41.830Z,11.80
2018-09-18T17:57:11.836Z,12.90
2018-09-18T17:59:40.049Z,12.40
2018-09-18T18:02:08.845Z,10.40
2018-09-18T18:04:37.020Z,14.00
2018-09-18T18:07:05.210Z,12.50
2018-09-18T18:09:33.349Z,13.60
2018-09-18T18:12:01.528Z,14.30
2018-09-18T18:14:29.676Z,14.10
2018-09-18T18:16:57.804Z,13.30
2018-09-18T18:19:25.937Z,13.90
2018-09-18T18:21:54.048Z,13.70
2018-09-18T18:24:22.161Z,14.10
2018-09-18T18:26:50.260Z,14.80
2018-09-18T18:29:18.339Z,15.00
2018-09-18T18:31:46.456Z,13.30
2018-09-18T18:34:14.530Z,14.80
2018-09-18T18:36:42.599Z,14.20
2018-09-18T18:39:11.040Z,14.20
2018-09-18T18:41:39.544Z,13.30
2018-09-18T18:44:07.592Z,13.00
2018-09-18T18:46:36.208Z,13.70
2018-09-18T18:49:04.563Z,13.80
2018-09-18T18:51:32.829Z,14.10
2018-09-18T18:54:01.555Z,15.10
2018-09-18T18:56:29.885Z,15.70
2018-09-18T18:58:58.118Z,15.70
2018-09-18T19:01:26.201Z,16.60
2018-09-18T19:03:54.383Z,17.30
2018-09-18T19:06:22.541Z,17.70
2018-09-18T19:08:50.628Z,18.00
2018-09-18T19:11:18.760Z,18.30
2018-09-18T19:13:46.827Z,19.50
2018-09-18T19:16:14.989Z,19.60
2018-09-18T19:18:43.151Z,19.60
2018-09-18T19:21:11.351Z,20.40
2018-09-18T19:23:39.781Z,21.20
2018-09-18T19:26:08.077Z,21.70
2018-09-18T19:28:36.443Z,21.80
2018-09-18T19:31:04.704Z,22.30
2018-09-18T19:33:33.046Z,22.60
2018-09-18T19:36:01.385Z,23.40
2018-09-18T19:38:29.762Z,23.90
2018-09-18T19:40:58.120Z,24.50
2018-09-18T19:43:26.503Z,25.00
2018-09-18T19:45:54.904Z,25.20
2018-09-18T19:48:23.267Z,25.60
2018-09-18T19:50:51.758Z,26.10
2018-09-18T19:53:20.029Z,25.90
2018-09-18T19:55:48.428Z,26.60
2018-09-18T19:58:16.769Z,26.30
2018-09-18T20:00:45.309Z,27.10
2018-09-18T20:03:13.712Z,27.30
2018-09-18T20:05:42.076Z,27.40
2018-09-18T20:08:10.332Z,27.80
2018-09-18T20:10:38.737Z,28.10
2018-09-18T20:13:09.032Z,28.40
2018-09-18T20:15:41.152Z,28.80
2018-09-18T20:18:09.580Z,28.90
2018-09-18T20:20:38.121Z,29.00
2018-09-18T20:23:06.530Z,29.70
2018-09-18T20:25:35.528Z,30.00
2018-09-18T20:28:03.973Z,30.40
2018-09-18T20:30:38.673Z,30.20
2018-09-18T20:33:06.876Z,30.50
2018-09-18T20:35:35.021Z,30.40
2018-09-18T20:38:03.114Z,31.60
2018-09-18T20:40:31.238Z,31.50
2018-09-18T20:42:59.976Z,31.80
2018-09-18T20:45:28.129Z,31.90
2018-09-18T20:47:56.256Z,32.10
2018-09-18T20:50:25.016Z,33.20
2018-09-18T20:52:55.995Z,33.30
2018-09-18T20:55:24.924Z,33.70
2018-09-18T20:57:53.127Z,33.80
2018-09-18T21:00:21.951Z,34.40
2018-09-18T21:02:50.587Z,34.50
2018-09-18T21:05:19.087Z,34.70
2018-09-18T21:07:48.464Z,35.70
2018-09-18T21:10:18.154Z,35.70
2018-09-18T21:12:47.079Z,36.30
2018-09-18T21:15:15.273Z,36.30
2018-09-18T21:17:44.139Z,36.80
2018-09-18T21:20:12.938Z,37.20
2018-09-18T21:22:41.109Z,37.40
2018-09-18T21:25:18.362Z,37.50
2018-09-18T21:27:47.352Z,38.10
2018-09-18T21:30:16.432Z,38.30
2018-09-18T21:32:44.507Z,38.60
2018-09-18T21:35:12.626Z,39.00
2018-09-18T21:37:41.605Z,39.70
2018-09-18T21:40:10.051Z,39.50
2018-09-18T21:42:38.160Z,39.40
2018-09-18T21:45:06.294Z,39.50
2018-09-18T21:47:34.449Z,39.80
2018-09-18T21:50:02.597Z,40.50
2018-09-18T21:52:30.753Z,41.10
2018-09-18T21:54:58.948Z,41.80
2018-09-18T21:57:27.087Z,41.20
2018-09-18T21:59:55.180Z,41.60
2018-09-18T22:02:23.549Z,41.90
2018-09-18T22:04:51.608Z,42.60
2018-09-18T22:07:19.696Z,43.20
2018-09-18T22:09:47.768Z,44.00
2018-09-18T22:12:15.949Z,45.40
2018-09-18T22:14:44.081Z,45.10
2018-09-18T22:17:12.219Z,46.00
2018-09-18T22:19:40.330Z,48.10
2018-09-18T22:22:08.506Z,49.10
2018-09-18T22:24:36.636Z,49.40
2018-09-18T22:27:04.735Z,49.50
2018-09-18T22:29:32.835Z,50.00
2018-09-18T22:32:00.975Z,50.60
2018-09-18T22:34:29.043Z,50.80
2018-09-18T22:36:57.140Z,50.70
2018-09-18T22:39:25.268Z,51.30
2018-09-18T22:41:53.395Z,51.90
2018-09-18T22:44:21.488Z,51.50
2018-09-18T22:46:49.593Z,51.90
2018-09-18T22:49:17.713Z,52.80
2018-09-18T22:51:45.809Z,53.10
2018-09-18T22:54:13.951Z,53.50
2018-09-18T22:56:42.066Z,53.60
2018-09-18T22:59:10.216Z,53.70
2018-09-18T23:01:38.336Z,53.70
2018-09-18T23:04:06.529Z,53.60
2018-09-18T23:06:34.671Z,53.40
2018-09-18T23:09:02.799Z,53.60
2018-09-18T23:11:30.884Z,54.00
2018-09-18T23:13:59.100Z,54.00
2018-09-18T23:16:27.218Z,53.60
2018-09-18T23:18:55.400Z,53.60
2018-09-18T23:21:23.478Z,53.90
2018-09-18T23:23:51.552Z,54.30
2018-09-18T23:26:19.686Z,54.70
2018-09-18T23:28:47.815Z,54.80
2018-09-18T23:31:15.960Z,54.70
2018-09-18T23:33:44.135Z,54.60
2018-09-18T23:36:12.265Z,55.30
2018-09-18T23:38:40.354Z,55.00
2018-09-18T23:41:08.463Z,55.10
2018-09-18T23:43:36.609Z,55.20
2018-09-18T23:46:04.813Z,55.40
2018-09-18T23:48:32.953Z,55.20
2018-09-18T23:51:01.055Z,55.10
2018-09-18T23:53:29.212Z,55.40
2018-09-18T23:55:57.315Z,55.40
2018-09-18T23:58:25.446Z,55.80
